sensor_id;sensor_type;location;lat;lon;timestamp;temperature;humidity
318;DHT22;146;53.448;10.228;2023-04-03T00:01:33;2.10;1.00
318;DHT22;146;53.448;10.228;2023-04-03T00:04:09;2.00;1.00
318;DHT22;146;53.448;10.228;2023-04-03T00:06:36;2.00;1.00
318;DHT22;146;53.448;10.228;2023-04-03T00:09:04;2.00;1.00
318;DHT22;146;53.448;10.228;2023-04-03T00:11:31;1.90;1.00
318;DHT22;146;53.448;10.228;2023-04-03T00:14:03;1.90;1.00
318;DHT22;146;53.448;10.228;2023-04-03T00:16:30;1.90;1.00
318;DHT22;146;53.448;10.228;2023-04-03T00:19:06;1.80;1.00
318;DHT22;146;53.448;10.228;2023-04-03T00:21:36;1.80;1.00
318;DHT22;146;53.448;10.228;2023-04-03T00:24:11;1.80;1.00
318;DHT22;146;53.448;10.228;2023-04-03T00:26:38;1.80;1.00
318;DHT22;146;53.448;10.228;2023-04-03T00:29:05;1.70;1.00
318;DHT22;146;53.448;10.228;2023-04-03T00:31:48;1.80;1.00
318;DHT22;146;53.448;10.228;2023-04-03T00:34:15;1.70;1.00
318;DHT22;146;53.448;10.228;2023-04-03T00:36:42;1.70;1.00
318;DHT22;146;53.448;10.228;2023-04-03T00:39:10;1.60;1.00
318;DHT22;146;53.448;10.228;2023-04-03T00:41:39;1.60;1.00
318;DHT22;146;53.448;10.228;2023-04-03T00:44:20;1.60;1.00
318;DHT22;146;53.448;10.228;2023-04-03T00:46:47;1.60;1.00
318;DHT22;146;53.448;10.228;2023-04-03T00:49:14;1.50;1.00
318;DHT22;146;53.448;10.228;2023-04-03T00:51:41;1.30;1.00
318;DHT22;146;53.448;10.228;2023-04-03T00:54:12;1.40;1.00
318;DHT22;146;53.448;10.228;2023-04-03T00:56:39;1.40;1.00
318;DHT22;146;53.448;10.228;2023-04-03T00:59:10;1.30;1.00
318;DHT22;146;53.448;10.228;2023-04-03T01:01:38;1.30;1.00
318;DHT22;146;53.448;10.228;2023-04-03T01:04:26;1.20;1.00
318;DHT22;146;53.448;10.228;2023-04-03T01:06:58;1.20;1.00
318;DHT22;146;53.448;10.228;2023-04-03T01:09:32;1.20;1.00
318;DHT22;146;53.448;10.228;2023-04-03T01:12:15;1.20;1.00
318;DHT22;146;53.448;10.228;2023-04-03T01:14:50;1.30;1.00
318;DHT22;146;53.448;10.228;2023-04-03T01:17:32;1.30;1.00
318;DHT22;146;53.448;10.228;2023-04-03T01:23:20;1.30;1.00
318;DHT22;146;53.448;10.228;2023-04-03T01:25:55;1.30;1.00
318;DHT22;146;53.448;10.228;2023-04-03T01:28:23;1.30;1.00
318;DHT22;146;53.448;10.228;2023-04-03T01:30:59;1.20;1.00
318;DHT22;146;53.448;10.228;2023-04-03T01:33:34;1.20;1.00
318;DHT22;146;53.448;10.228;2023-04-03T01:36:01;1.30;1.00
318;DHT22;146;53.448;10.228;2023-04-03T01:38:31;1.30;1.00
318;DHT22;146;53.448;10.228;2023-04-03T01:41:01;1.30;1.00
318;DHT22;146;53.448;10.228;2023-04-03T01:43:28;1.20;1.00
318;DHT22;146;53.448;10.228;2023-04-03T01:45:57;1.20;1.00
318;DHT22;146;53.448;10.228;2023-04-03T01:48:27;1.30;1.00
318;DHT22;146;53.448;10.228;2023-04-03T01:50:55;1.30;1.00
318;DHT22;146;53.448;10.228;2023-04-03T01:53:24;1.30;1.00
318;DHT22;146;53.448;10.228;2023-04-03T01:55:54;1.30;1.00
318;DHT22;146;53.448;10.228;2023-04-03T01:58:24;1.30;1.00
318;DHT22;146;53.448;10.228;2023-04-03T02:00:54;1.30;1.00
318;DHT22;146;53.448;10.228;2023-04-03T02:03:21;1.30;1.00
318;DHT22;146;53.448;10.228;2023-04-03T02:05:48;1.30;1.00
318;DHT22;146;53.448;10.228;2023-04-03T02:08:17;1.40;1.00
318;DHT22;146;53.448;10.228;2023-04-03T02:10:50;1.40;1.00
318;DHT22;146;53.448;10.228;2023-04-03T02:13:18;1.40;1.00
318;DHT22;146;53.448;10.228;2023-04-03T02:15:45;1.40;1.00
318;DHT22;146;53.448;10.228;2023-04-03T02:18:15;1.40;1.00
318;DHT22;146;53.448;10.228;2023-04-03T02:20:42;1.50;1.00
318;DHT22;146;53.448;10.228;2023-04-03T02:23:09;1.50;1.00
318;DHT22;146;53.448;10.228;2023-04-03T02:25:40;1.50;1.00
318;DHT22;146;53.448;10.228;2023-04-03T02:28:12;1.50;1.00
318;DHT22;146;53.448;10.228;2023-04-03T02:30:41;1.50;1.00
318;DHT22;146;53.448;10.228;2023-04-03T02:33:08;1.50;1.00
318;DHT22;146;53.448;10.228;2023-04-03T02:35:40;1.50;1.00
318;DHT22;146;53.448;10.228;2023-04-03T02:38:07;1.50;1.00
318;DHT22;146;53.448;10.228;2023-04-03T02:40:34;1.50;1.00
318;DHT22;146;53.448;10.228;2023-04-03T02:43:11;1.40;1.00
318;DHT22;146;53.448;10.228;2023-04-03T02:45:37;1.40;1.00
318;DHT22;146;53.448;10.228;2023-04-03T02:48:07;1.40;1.00
318;DHT22;146;53.448;10.228;2023-04-03T02:50:40;1.40;1.00
318;DHT22;146;53.448;10.228;2023-04-03T02:53:07;1.40;1.00
318;DHT22;146;53.448;10.228;2023-04-03T02:55:37;1.30;1.00
318;DHT22;146;53.448;10.228;2023-04-03T02:58:07;1.30;1.00
318;DHT22;146;53.448;10.228;2023-04-03T03:00:35;1.20;1.00
318;DHT22;146;53.448;10.228;2023-04-03T03:03:02;1.20;1.00
318;DHT22;146;53.448;10.228;2023-04-03T03:05:30;1.20;1.00
318;DHT22;146;53.448;10.228;2023-04-03T03:07:56;1.20;1.00
318;DHT22;146;53.448;10.228;2023-04-03T03:10:26;1.20;1.00
318;DHT22;146;53.448;10.228;2023-04-03T03:12:55;1.20;1.00
318;DHT22;146;53.448;10.228;2023-04-03T03:15:52;1.20;1.00
318;DHT22;146;53.448;10.228;2023-04-03T03:18:19;1.20;1.00
318;DHT22;146;53.448;10.228;2023-04-03T03:20:46;1.20;1.00
318;DHT22;146;53.448;10.228;2023-04-03T03:23:16;1.20;1.00
318;DHT22;146;53.448;10.228;2023-04-03T03:25:46;1.10;1.00
318;DHT22;146;53.448;10.228;2023-04-03T03:28:12;1.20;1.00
318;DHT22;146;53.448;10.228;2023-04-03T03:30:40;1.10;1.00
318;DHT22;146;53.448;10.228;2023-04-03T03:33:08;1.00;1.00
318;DHT22;146;53.448;10.228;2023-04-03T03:35:35;1.00;1.00
318;DHT22;146;53.448;10.228;2023-04-03T03:38:02;1.00;1.00
318;DHT22;146;53.448;10.228;2023-04-03T03:40:35;1.00;1.00
318;DHT22;146;53.448;10.228;2023-04-03T03:43:03;1.00;1.00
318;DHT22;146;53.448;10.228;2023-04-03T03:45:33;1.10;1.00
318;DHT22;146;53.448;10.228;2023-04-03T03:48:14;1.10;1.00
318;DHT22;146;53.448;10.228;2023-04-03T03:50:41;1.10;1.00
318;DHT22;146;53.448;10.228;2023-04-03T03:53:20;1.20;1.00
318;DHT22;146;53.448;10.228;2023-04-03T03:55:46;1.20;1.00
318;DHT22;146;53.448;10.228;2023-04-03T03:58:25;1.20;1.00
318;DHT22;146;53.448;10.228;2023-04-03T04:00:54;1.20;1.00
318;DHT22;146;53.448;10.228;2023-04-03T04:03:25;1.20;1.00
318;DHT22;146;53.448;10.228;2023-04-03T04:05:55;1.20;1.00
318;DHT22;146;53.448;10.228;2023-04-03T04:08:25;1.20;1.00
318;DHT22;146;53.448;10.228;2023-04-03T04:11:00;1.20;1.00
318;DHT22;146;53.448;10.228;2023-04-03T04:13:33;1.10;1.00
318;DHT22;146;53.448;10.228;2023-04-03T04:16:00;1.00;1.00
318;DHT22;146;53.448;10.228;2023-04-03T04:18:37;1.10;1.00
318;DHT22;146;53.448;10.228;2023-04-03T04:21:06;1.00;1.00
318;DHT22;146;53.448;10.228;2023-04-03T04:23:33;1.00;1.00
318;DHT22;146;53.448;10.228;2023-04-03T04:26:00;1.10;1.00
318;DHT22;146;53.448;10.228;2023-04-03T04:28:27;1.00;1.00
318;DHT22;146;53.448;10.228;2023-04-03T04:30:53;0.90;1.00
318;DHT22;146;53.448;10.228;2023-04-03T04:33:26;0.90;1.00
318;DHT22;146;53.448;10.228;2023-04-03T04:35:57;0.80;1.00
318;DHT22;146;53.448;10.228;2023-04-03T04:38:27;0.80;1.00
318;DHT22;146;53.448;10.228;2023-04-03T04:40:54;0.80;1.00
318;DHT22;146;53.448;10.228;2023-04-03T04:43:20;0.80;1.00
318;DHT22;146;53.448;10.228;2023-04-03T04:45:47;0.80;1.00
318;DHT22;146;53.448;10.228;2023-04-03T04:48:14;0.80;1.00
318;DHT22;146;53.448;10.228;2023-04-03T04:50:48;0.80;1.00
318;DHT22;146;53.448;10.228;2023-04-03T04:53:16;0.80;1.00
318;DHT22;146;53.448;10.228;2023-04-03T04:55:49;0.70;1.00
318;DHT22;146;53.448;10.228;2023-04-03T04:58:15;0.70;1.00
318;DHT22;146;53.448;10.228;2023-04-03T05:00:45;0.70;1.00
318;DHT22;146;53.448;10.228;2023-04-03T05:03:15;0.70;1.00
318;DHT22;146;53.448;10.228;2023-04-03T05:05:41;0.60;1.00
318;DHT22;146;53.448;10.228;2023-04-03T05:08:14;0.60;1.00
318;DHT22;146;53.448;10.228;2023-04-03T05:10:42;0.60;1.00
318;DHT22;146;53.448;10.228;2023-04-03T05:13:09;0.60;1.00
318;DHT22;146;53.448;10.228;2023-04-03T05:15:35;0.70;1.00
318;DHT22;146;53.448;10.228;2023-04-03T05:18:02;0.60;1.00
318;DHT22;146;53.448;10.228;2023-04-03T05:20:30;0.60;1.00
318;DHT22;146;53.448;10.228;2023-04-03T05:22:57;0.50;1.00
318;DHT22;146;53.448;10.228;2023-04-03T05:25:24;0.60;1.00
318;DHT22;146;53.448;10.228;2023-04-03T05:27:52;0.60;1.00
318;DHT22;146;53.448;10.228;2023-04-03T05:30:22;0.70;1.00
318;DHT22;146;53.448;10.228;2023-04-03T05:32:49;0.70;1.00
318;DHT22;146;53.448;10.228;2023-04-03T05:35:16;0.80;1.00
318;DHT22;146;53.448;10.228;2023-04-03T05:37:43;0.80;1.00
318;DHT22;146;53.448;10.228;2023-04-03T05:40:13;0.90;1.00
318;DHT22;146;53.448;10.228;2023-04-03T05:42:42;0.90;1.00
318;DHT22;146;53.448;10.228;2023-04-03T05:45:11;1.00;1.00
318;DHT22;146;53.448;10.228;2023-04-03T05:47:38;1.00;1.00
318;DHT22;146;53.448;10.228;2023-04-03T05:50:05;1.00;1.00
318;DHT22;146;53.448;10.228;2023-04-03T05:52:36;1.00;1.00
318;DHT22;146;53.448;10.228;2023-04-03T05:58:02;1.10;1.00
318;DHT22;146;53.448;10.228;2023-04-03T06:00:36;1.20;1.00
318;DHT22;146;53.448;10.228;2023-04-03T06:03:03;1.20;1.00
318;DHT22;146;53.448;10.228;2023-04-03T06:05:36;1.20;1.00
318;DHT22;146;53.448;10.228;2023-04-03T06:08:03;1.30;1.00
318;DHT22;146;53.448;10.228;2023-04-03T06:10:30;1.30;1.00
318;DHT22;146;53.448;10.228;2023-04-03T06:12:56;1.30;1.00
318;DHT22;146;53.448;10.228;2023-04-03T06:15:23;1.40;1.00
318;DHT22;146;53.448;10.228;2023-04-03T06:17:54;1.50;1.00
318;DHT22;146;53.448;10.228;2023-04-03T06:20:21;1.60;1.00
318;DHT22;146;53.448;10.228;2023-04-03T06:23:06;1.60;1.00
318;DHT22;146;53.448;10.228;2023-04-03T06:25:37;1.60;1.00
318;DHT22;146;53.448;10.228;2023-04-03T06:28:03;1.70;1.00
318;DHT22;146;53.448;10.228;2023-04-03T06:30:31;1.90;1.00
318;DHT22;146;53.448;10.228;2023-04-03T06:32:59;2.00;1.00
318;DHT22;146;53.448;10.228;2023-04-03T06:35:26;2.20;1.00
318;DHT22;146;53.448;10.228;2023-04-03T06:37:54;2.20;1.00
318;DHT22;146;53.448;10.228;2023-04-03T06:40:23;2.40;1.00
318;DHT22;146;53.448;10.228;2023-04-03T06:42:50;2.50;1.00
318;DHT22;146;53.448;10.228;2023-04-03T06:45:24;2.70;1.00
318;DHT22;146;53.448;10.228;2023-04-03T06:47:51;2.80;1.00
318;DHT22;146;53.448;10.228;2023-04-03T06:50:20;2.80;1.00
318;DHT22;146;53.448;10.228;2023-04-03T06:52:46;2.90;1.00
318;DHT22;146;53.448;10.228;2023-04-03T06:55:13;3.00;1.00
318;DHT22;146;53.448;10.228;2023-04-03T06:57:40;3.10;1.00
318;DHT22;146;53.448;10.228;2023-04-03T07:00:07;3.30;1.00
318;DHT22;146;53.448;10.228;2023-04-03T07:02:38;3.40;1.00
318;DHT22;146;53.448;10.228;2023-04-03T07:05:05;3.50;1.00
318;DHT22;146;53.448;10.228;2023-04-03T07:07:37;3.70;1.00
318;DHT22;146;53.448;10.228;2023-04-03T07:10:05;3.90;1.00
318;DHT22;146;53.448;10.228;2023-04-03T07:12:32;4.00;1.00
318;DHT22;146;53.448;10.228;2023-04-03T07:14:59;4.20;1.00
318;DHT22;146;53.448;10.228;2023-04-03T07:17:26;4.40;1.00
318;DHT22;146;53.448;10.228;2023-04-03T07:19:53;4.40;1.00
318;DHT22;146;53.448;10.228;2023-04-03T07:22:20;4.50;1.00
318;DHT22;146;53.448;10.228;2023-04-03T07:24:48;4.50;1.00
318;DHT22;146;53.448;10.228;2023-04-03T07:27:15;4.60;1.00
318;DHT22;146;53.448;10.228;2023-04-03T07:29:47;4.60;1.00
318;DHT22;146;53.448;10.228;2023-04-03T07:32:20;4.70;1.00
318;DHT22;146;53.448;10.228;2023-04-03T07:34:59;4.60;1.00
318;DHT22;146;53.448;10.228;2023-04-03T07:37:26;4.70;1.00
318;DHT22;146;53.448;10.228;2023-04-03T07:39:56;4.70;1.00
318;DHT22;146;53.448;10.228;2023-04-03T07:42:24;4.80;1.00
318;DHT22;146;53.448;10.228;2023-04-03T07:44:54;4.90;1.00
318;DHT22;146;53.448;10.228;2023-04-03T07:47:28;5.10;1.00
318;DHT22;146;53.448;10.228;2023-04-03T07:49:58;5.20;1.00
318;DHT22;146;53.448;10.228;2023-04-03T07:52:24;5.20;1.00
318;DHT22;146;53.448;10.228;2023-04-03T07:54:59;5.30;1.00
318;DHT22;146;53.448;10.228;2023-04-03T07:57:25;5.40;1.00
318;DHT22;146;53.448;10.228;2023-04-03T07:59:52;5.40;1.00
318;DHT22;146;53.448;10.228;2023-04-03T08:02:25;5.40;1.00
318;DHT22;146;53.448;10.228;2023-04-03T08:04:57;5.40;1.00
318;DHT22;146;53.448;10.228;2023-04-03T08:07:26;5.40;1.00
318;DHT22;146;53.448;10.228;2023-04-03T08:10:06;5.50;1.00
318;DHT22;146;53.448;10.228;2023-04-03T08:12:40;5.50;1.00
318;DHT22;146;53.448;10.228;2023-04-03T08:15:08;5.40;1.00
318;DHT22;146;53.448;10.228;2023-04-03T08:17:35;5.50;1.00
318;DHT22;146;53.448;10.228;2023-04-03T08:20:03;5.50;1.00
318;DHT22;146;53.448;10.228;2023-04-03T08:22:34;5.60;1.00
318;DHT22;146;53.448;10.228;2023-04-03T08:25:01;5.70;1.00
318;DHT22;146;53.448;10.228;2023-04-03T08:27:51;5.70;1.00
318;DHT22;146;53.448;10.228;2023-04-03T08:30:21;5.90;1.00
318;DHT22;146;53.448;10.228;2023-04-03T08:32:48;5.80;1.00
318;DHT22;146;53.448;10.228;2023-04-03T08:35:14;5.70;1.00
318;DHT22;146;53.448;10.228;2023-04-03T08:37:41;5.80;1.00
318;DHT22;146;53.448;10.228;2023-04-03T08:40:15;5.90;1.00
318;DHT22;146;53.448;10.228;2023-04-03T08:42:56;5.90;1.00
318;DHT22;146;53.448;10.228;2023-04-03T08:45:38;5.90;1.00
318;DHT22;146;53.448;10.228;2023-04-03T08:48:12;6.00;1.00
318;DHT22;146;53.448;10.228;2023-04-03T08:50:43;6.20;1.00
318;DHT22;146;53.448;10.228;2023-04-03T08:53:14;6.30;1.00
318;DHT22;146;53.448;10.228;2023-04-03T08:55:43;6.40;1.00
318;DHT22;146;53.448;10.228;2023-04-03T08:58:18;6.40;1.00
318;DHT22;146;53.448;10.228;2023-04-03T09:01:02;6.50;1.00
318;DHT22;146;53.448;10.228;2023-04-03T09:03:40;6.50;1.00
318;DHT22;146;53.448;10.228;2023-04-03T09:06:12;6.60;1.00
318;DHT22;146;53.448;10.228;2023-04-03T09:08:46;6.60;1.00
318;DHT22;146;53.448;10.228;2023-04-03T09:11:20;6.60;1.00
318;DHT22;146;53.448;10.228;2023-04-03T09:14:01;6.70;1.00
318;DHT22;146;53.448;10.228;2023-04-03T09:16:47;6.80;1.00
318;DHT22;146;53.448;10.228;2023-04-03T09:19:24;6.80;1.00
318;DHT22;146;53.448;10.228;2023-04-03T09:22:13;6.80;1.00
318;DHT22;146;53.448;10.228;2023-04-03T09:24:43;6.90;1.00
318;DHT22;146;53.448;10.228;2023-04-03T09:27:11;7.00;1.00
318;DHT22;146;53.448;10.228;2023-04-03T09:29:40;7.10;1.00
318;DHT22;146;53.448;10.228;2023-04-03T09:32:21;7.10;1.00
318;DHT22;146;53.448;10.228;2023-04-03T09:34:58;7.10;1.00
318;DHT22;146;53.448;10.228;2023-04-03T09:37:47;7.00;1.00
318;DHT22;146;53.448;10.228;2023-04-03T09:40:32;6.90;1.00
318;DHT22;146;53.448;10.228;2023-04-03T09:43:27;6.90;1.00
318;DHT22;146;53.448;10.228;2023-04-03T09:48:57;7.10;1.00
318;DHT22;146;53.448;10.228;2023-04-03T09:51:26;7.30;1.00
318;DHT22;146;53.448;10.228;2023-04-03T09:53:54;7.30;1.00
318;DHT22;146;53.448;10.228;2023-04-03T09:56:40;7.40;1.00
318;DHT22;146;53.448;10.228;2023-04-03T09:59:15;7.40;1.00
318;DHT22;146;53.448;10.228;2023-04-03T10:01:57;7.30;1.00
318;DHT22;146;53.448;10.228;2023-04-03T10:04:40;7.20;1.00
318;DHT22;146;53.448;10.228;2023-04-03T10:07:26;7.10;1.00
318;DHT22;146;53.448;10.228;2023-04-03T10:09:56;7.00;1.00
318;DHT22;146;53.448;10.228;2023-04-03T10:12:31;7.00;1.00
318;DHT22;146;53.448;10.228;2023-04-03T10:15:01;7.10;1.00
318;DHT22;146;53.448;10.228;2023-04-03T10:17:56;7.10;1.00
318;DHT22;146;53.448;10.228;2023-04-03T10:20:31;7.00;1.00
318;DHT22;146;53.448;10.228;2023-04-03T10:23:08;7.00;1.00
318;DHT22;146;53.448;10.228;2023-04-03T10:25:43;7.00;1.00
318;DHT22;146;53.448;10.228;2023-04-03T10:28:19;7.10;1.00
318;DHT22;146;53.448;10.228;2023-04-03T10:30:59;7.00;1.00
318;DHT22;146;53.448;10.228;2023-04-03T10:33:44;7.00;1.00
318;DHT22;146;53.448;10.228;2023-04-03T10:36:28;7.00;1.00
318;DHT22;146;53.448;10.228;2023-04-03T10:39:15;6.90;1.00
318;DHT22;146;53.448;10.228;2023-04-03T10:41:59;7.00;1.00
318;DHT22;146;53.448;10.228;2023-04-03T10:44:38;7.10;1.00
318;DHT22;146;53.448;10.228;2023-04-03T10:47:11;7.00;1.00
318;DHT22;146;53.448;10.228;2023-04-03T10:49:51;7.10;1.00
318;DHT22;146;53.448;10.228;2023-04-03T10:52:26;7.20;1.00
318;DHT22;146;53.448;10.228;2023-04-03T10:55:01;7.20;1.00
318;DHT22;146;53.448;10.228;2023-04-03T10:57:30;7.20;1.00
318;DHT22;146;53.448;10.228;2023-04-03T11:00:03;7.20;1.00
318;DHT22;146;53.448;10.228;2023-04-03T11:02:33;7.40;1.00
318;DHT22;146;53.448;10.228;2023-04-03T11:05:05;7.50;1.00
318;DHT22;146;53.448;10.228;2023-04-03T11:07:38;7.90;1.00
318;DHT22;146;53.448;10.228;2023-04-03T11:10:13;8.10;1.00
318;DHT22;146;53.448;10.228;2023-04-03T11:12:44;8.30;1.00
318;DHT22;146;53.448;10.228;2023-04-03T11:15:15;8.20;1.00
318;DHT22;146;53.448;10.228;2023-04-03T11:17:46;7.90;1.00
318;DHT22;146;53.448;10.228;2023-04-03T11:20:19;7.70;1.00
318;DHT22;146;53.448;10.228;2023-04-03T11:23:00;7.80;1.00
318;DHT22;146;53.448;10.228;2023-04-03T11:25:33;7.70;1.00
318;DHT22;146;53.448;10.228;2023-04-03T11:28:04;7.60;1.00
318;DHT22;146;53.448;10.228;2023-04-03T11:30:39;7.60;1.00
318;DHT22;146;53.448;10.228;2023-04-03T11:33:33;7.70;1.00
318;DHT22;146;53.448;10.228;2023-04-03T11:36:06;7.80;1.00
318;DHT22;146;53.448;10.228;2023-04-03T11:38:38;8.00;1.00
318;DHT22;146;53.448;10.228;2023-04-03T11:41:09;8.10;1.00
318;DHT22;146;53.448;10.228;2023-04-03T11:43:56;8.30;1.00
318;DHT22;146;53.448;10.228;2023-04-03T11:47:02;8.60;1.00
318;DHT22;146;53.448;10.228;2023-04-03T11:49:58;8.60;1.00
318;DHT22;146;53.448;10.228;2023-04-03T11:52:58;8.30;1.00
318;DHT22;146;53.448;10.228;2023-04-03T11:55:58;8.10;1.00
318;DHT22;146;53.448;10.228;2023-04-03T11:58:28;8.20;1.00
318;DHT22;146;53.448;10.228;2023-04-03T12:01:01;8.30;1.00
318;DHT22;146;53.448;10.228;2023-04-03T12:04:09;8.30;1.00
318;DHT22;146;53.448;10.228;2023-04-03T12:09:57;7.90;1.00
318;DHT22;146;53.448;10.228;2023-04-03T12:12:39;7.90;1.00
318;DHT22;146;53.448;10.228;2023-04-03T12:21:10;7.70;1.00
318;DHT22;146;53.448;10.228;2023-04-03T12:23:57;7.90;1.00
318;DHT22;146;53.448;10.228;2023-04-03T12:26:30;7.90;1.00
318;DHT22;146;53.448;10.228;2023-04-03T12:29:01;8.00;1.00
318;DHT22;146;53.448;10.228;2023-04-03T12:31:42;8.10;1.00
318;DHT22;146;53.448;10.228;2023-04-03T12:34:21;8.20;1.00
318;DHT22;146;53.448;10.228;2023-04-03T12:37:01;8.50;1.00
318;DHT22;146;53.448;10.228;2023-04-03T12:39:51;8.40;1.00
318;DHT22;146;53.448;10.228;2023-04-03T12:42:43;8.40;1.00
318;DHT22;146;53.448;10.228;2023-04-03T12:45:23;8.40;1.00
318;DHT22;146;53.448;10.228;2023-04-03T12:47:55;8.30;1.00
318;DHT22;146;53.448;10.228;2023-04-03T12:50:28;8.40;1.00
318;DHT22;146;53.448;10.228;2023-04-03T12:52:59;8.30;1.00
318;DHT22;146;53.448;10.228;2023-04-03T12:55:28;8.20;1.00
318;DHT22;146;53.448;10.228;2023-04-03T12:58:13;8.10;1.00
318;DHT22;146;53.448;10.228;2023-04-03T13:00:41;8.20;1.00
318;DHT22;146;53.448;10.228;2023-04-03T13:03:23;8.30;1.00
318;DHT22;146;53.448;10.228;2023-04-03T13:05:52;8.40;1.00
318;DHT22;146;53.448;10.228;2023-04-03T13:08:29;8.50;1.00
318;DHT22;146;53.448;10.228;2023-04-03T13:11:01;8.70;1.00
318;DHT22;146;53.448;10.228;2023-04-03T13:13:30;8.70;1.00
318;DHT22;146;53.448;10.228;2023-04-03T13:16:10;8.80;1.00
318;DHT22;146;53.448;10.228;2023-04-03T13:18:39;8.90;1.00
318;DHT22;146;53.448;10.228;2023-04-03T13:21:15;9.00;1.00
318;DHT22;146;53.448;10.228;2023-04-03T13:23:48;8.90;1.00
318;DHT22;146;53.448;10.228;2023-04-03T13:26:17;8.80;1.00
318;DHT22;146;53.448;10.228;2023-04-03T13:28:46;8.90;1.00
318;DHT22;146;53.448;10.228;2023-04-03T13:31:19;8.90;1.00
318;DHT22;146;53.448;10.228;2023-04-03T13:34:02;9.00;1.00
318;DHT22;146;53.448;10.228;2023-04-03T13:36:32;9.10;1.00
318;DHT22;146;53.448;10.228;2023-04-03T13:39:03;8.80;1.00
318;DHT22;146;53.448;10.228;2023-04-03T13:41:33;8.60;1.00
318;DHT22;146;53.448;10.228;2023-04-03T13:44:31;8.40;1.00
318;DHT22;146;53.448;10.228;2023-04-03T13:46:59;8.30;1.00
318;DHT22;146;53.448;10.228;2023-04-03T13:49:33;8.30;1.00
318;DHT22;146;53.448;10.228;2023-04-03T13:52:02;8.30;1.00
318;DHT22;146;53.448;10.228;2023-04-03T13:54:46;8.30;1.00
318;DHT22;146;53.448;10.228;2023-04-03T13:57:15;8.20;1.00
318;DHT22;146;53.448;10.228;2023-04-03T13:59:43;8.30;1.00
318;DHT22;146;53.448;10.228;2023-04-03T14:02:15;8.30;1.00
318;DHT22;146;53.448;10.228;2023-04-03T14:04:52;8.40;1.00
318;DHT22;146;53.448;10.228;2023-04-03T14:07:22;8.40;1.00
318;DHT22;146;53.448;10.228;2023-04-03T14:09:49;8.40;1.00
318;DHT22;146;53.448;10.228;2023-04-03T14:12:19;8.50;1.00
318;DHT22;146;53.448;10.228;2023-04-03T14:14:49;8.50;1.00
318;DHT22;146;53.448;10.228;2023-04-03T14:17:18;8.50;1.00
318;DHT22;146;53.448;10.228;2023-04-03T14:19:47;8.50;1.00
318;DHT22;146;53.448;10.228;2023-04-03T14:22:16;8.50;1.00
318;DHT22;146;53.448;10.228;2023-04-03T14:24:43;8.50;1.00
318;DHT22;146;53.448;10.228;2023-04-03T14:27:16;8.50;1.00
318;DHT22;146;53.448;10.228;2023-04-03T14:29:43;8.60;1.00
318;DHT22;146;53.448;10.228;2023-04-03T14:32:12;8.50;1.00
318;DHT22;146;53.448;10.228;2023-04-03T14:34:40;8.50;1.00
318;DHT22;146;53.448;10.228;2023-04-03T14:37:10;8.30;1.00
318;DHT22;146;53.448;10.228;2023-04-03T14:39:37;8.00;1.00
318;DHT22;146;53.448;10.228;2023-04-03T14:42:04;7.90;1.00
318;DHT22;146;53.448;10.228;2023-04-03T14:44:31;8.00;1.00
318;DHT22;146;53.448;10.228;2023-04-03T14:46:58;8.00;1.00
318;DHT22;146;53.448;10.228;2023-04-03T14:49:27;7.80;1.00
318;DHT22;146;53.448;10.228;2023-04-03T14:51:55;7.80;1.00
318;DHT22;146;53.448;10.228;2023-04-03T14:54:22;7.80;1.00
318;DHT22;146;53.448;10.228;2023-04-03T14:56:51;7.80;1.00
318;DHT22;146;53.448;10.228;2023-04-03T14:59:18;7.60;1.00
318;DHT22;146;53.448;10.228;2023-04-03T15:01:47;7.70;1.00
318;DHT22;146;53.448;10.228;2023-04-03T15:04:15;7.70;1.00
318;DHT22;146;53.448;10.228;2023-04-03T15:06:48;7.80;1.00
318;DHT22;146;53.448;10.228;2023-04-03T15:09:19;7.60;1.00
318;DHT22;146;53.448;10.228;2023-04-03T15:11:47;7.50;1.00
318;DHT22;146;53.448;10.228;2023-04-03T15:14:13;7.60;1.00
318;DHT22;146;53.448;10.228;2023-04-03T15:16:40;7.50;1.00
318;DHT22;146;53.448;10.228;2023-04-03T15:19:07;7.60;1.00
318;DHT22;146;53.448;10.228;2023-04-03T15:21:34;7.60;1.00
318;DHT22;146;53.448;10.228;2023-04-03T15:24:08;7.60;1.00
318;DHT22;146;53.448;10.228;2023-04-03T15:26:47;7.60;1.00
318;DHT22;146;53.448;10.228;2023-04-03T15:29:13;7.60;1.00
318;DHT22;146;53.448;10.228;2023-04-03T15:31:40;7.50;1.00
318;DHT22;146;53.448;10.228;2023-04-03T15:34:16;7.40;1.00
318;DHT22;146;53.448;10.228;2023-04-03T15:36:46;7.50;1.00
318;DHT22;146;53.448;10.228;2023-04-03T15:39:17;7.50;1.00
318;DHT22;146;53.448;10.228;2023-04-03T15:41:46;7.50;1.00
318;DHT22;146;53.448;10.228;2023-04-03T15:44:13;7.40;1.00
318;DHT22;146;53.448;10.228;2023-04-03T15:46:43;7.30;1.00
318;DHT22;146;53.448;10.228;2023-04-03T15:49:09;7.20;1.00
318;DHT22;146;53.448;10.228;2023-04-03T15:51:37;7.20;1.00
318;DHT22;146;53.448;10.228;2023-04-03T15:54:04;7.30;1.00
318;DHT22;146;53.448;10.228;2023-04-03T15:56:32;7.30;1.00
318;DHT22;146;53.448;10.228;2023-04-03T15:59:02;7.40;1.00
318;DHT22;146;53.448;10.228;2023-04-03T16:01:31;7.20;1.00
318;DHT22;146;53.448;10.228;2023-04-03T16:04:01;7.10;1.00
318;DHT22;146;53.448;10.228;2023-04-03T16:06:30;7.10;1.00
318;DHT22;146;53.448;10.228;2023-04-03T16:08:58;7.20;1.00
318;DHT22;146;53.448;10.228;2023-04-03T16:11:29;7.20;1.00
318;DHT22;146;53.448;10.228;2023-04-03T16:13:57;7.30;1.00
318;DHT22;146;53.448;10.228;2023-04-03T16:16:25;7.40;1.00
318;DHT22;146;53.448;10.228;2023-04-03T16:18:55;7.30;1.00
318;DHT22;146;53.448;10.228;2023-04-03T16:21:26;7.20;1.00
318;DHT22;146;53.448;10.228;2023-04-03T16:23:56;7.20;1.00
318;DHT22;146;53.448;10.228;2023-04-03T16:26:23;7.10;1.00
318;DHT22;146;53.448;10.228;2023-04-03T16:28:50;7.20;1.00
318;DHT22;146;53.448;10.228;2023-04-03T16:31:19;7.20;1.00
318;DHT22;146;53.448;10.228;2023-04-03T16:33:46;7.20;1.00
318;DHT22;146;53.448;10.228;2023-04-03T16:36:13;7.10;1.00
318;DHT22;146;53.448;10.228;2023-04-03T16:38:47;7.10;1.00
318;DHT22;146;53.448;10.228;2023-04-03T16:41:14;7.00;1.00
318;DHT22;146;53.448;10.228;2023-04-03T16:43:41;6.90;1.00
318;DHT22;146;53.448;10.228;2023-04-03T16:46:11;6.90;1.00
318;DHT22;146;53.448;10.228;2023-04-03T16:48:39;6.90;1.00
318;DHT22;146;53.448;10.228;2023-04-03T16:51:13;6.90;1.00
318;DHT22;146;53.448;10.228;2023-04-03T16:53:40;6.90;1.00
318;DHT22;146;53.448;10.228;2023-04-03T16:56:07;6.80;1.00
318;DHT22;146;53.448;10.228;2023-04-03T16:58:42;6.70;1.00
318;DHT22;146;53.448;10.228;2023-04-03T17:01:13;6.70;1.00
318;DHT22;146;53.448;10.228;2023-04-03T17:07:17;6.60;1.00
318;DHT22;146;53.448;10.228;2023-04-03T17:11:04;6.50;1.00
318;DHT22;146;53.448;10.228;2023-04-03T17:13:58;6.50;1.00
318;DHT22;146;53.448;10.228;2023-04-03T17:17:11;6.50;1.00
318;DHT22;146;53.448;10.228;2023-04-03T17:19:53;6.40;1.00
318;DHT22;146;53.448;10.228;2023-04-03T17:27:02;6.30;1.00
318;DHT22;146;53.448;10.228;2023-04-03T17:30:11;6.10;1.00
318;DHT22;146;53.448;10.228;2023-04-03T17:32:43;6.00;1.00
318;DHT22;146;53.448;10.228;2023-04-03T17:46:47;5.70;1.00
318;DHT22;146;53.448;10.228;2023-04-03T17:49:21;5.60;1.00
318;DHT22;146;53.448;10.228;2023-04-03T17:51:49;5.40;1.00
318;DHT22;146;53.448;10.228;2023-04-03T17:54:16;5.40;1.00
318;DHT22;146;53.448;10.228;2023-04-03T17:56:43;5.40;1.00
318;DHT22;146;53.448;10.228;2023-04-03T17:59:16;5.30;1.00
318;DHT22;146;53.448;10.228;2023-04-03T18:01:47;5.20;1.00
318;DHT22;146;53.448;10.228;2023-04-03T18:04:14;5.10;1.00